createdAt,value
2022-09-02T00:00:08.985Z,15.80
2022-09-02T00:01:44.567Z,15.43
2022-09-02T00:03:17.064Z,13.52
2022-09-02T00:04:49.471Z,13.57
2022-09-02T00:06:21.563Z,15.77
2022-09-02T00:07:55.107Z,13.57
2022-09-02T00:09:27.282Z,13.77
2022-09-02T00:11:01.430Z,14.18
2022-09-02T00:12:33.559Z,16.55
2022-09-02T00:14:11.314Z,15.30
2022-09-02T00:15:44.320Z,15.88
2022-09-02T00:17:16.355Z,14.95
2022-09-02T00:18:49.361Z,13.75
2022-09-02T00:20:21.897Z,15.07
2022-09-02T00:21:55.205Z,15.55
2022-09-02T00:25:00.948Z,12.18
2022-09-02T00:26:33.331Z,16.58
2022-09-02T00:28:06.189Z,15.33
2022-09-02T00:31:12.201Z,14.07
2022-09-02T00:32:44.501Z,14.18
2022-09-02T00:34:16.882Z,14.15
2022-09-02T00:35:49.392Z,15.27
2022-09-02T00:37:21.448Z,15.27
2022-09-02T00:38:53.553Z,15.20
2022-09-02T00:40:26.683Z,14.88
2022-09-02T00:41:58.914Z,12.90
2022-09-02T00:43:39.959Z,16.48
2022-09-02T00:45:12.663Z,14.77
2022-09-02T00:46:45.116Z,13.98
2022-09-02T00:48:17.259Z,14.82
2022-09-02T00:49:52.285Z,13.43
2022-09-02T00:51:24.487Z,15.57
2022-09-02T00:53:00.810Z,15.18
2022-09-02T00:54:35.771Z,12.25
2022-09-02T00:56:13.343Z,15.50
2022-09-02T00:57:49.108Z,16.40
2022-09-02T00:59:26.361Z,13.02
2022-09-02T01:00:59.693Z,14.50
2022-09-02T01:02:32.161Z,13.60
2022-09-02T01:04:04.367Z,17.50
2022-09-02T01:05:43.768Z,15.32
2022-09-02T01:07:16.487Z,15.35
2022-09-02T01:08:54.659Z,14.48
2022-09-02T01:10:34.933Z,14.65
2022-09-02T01:12:07.420Z,14.82
2022-09-02T01:13:42.814Z,13.85
2022-09-02T01:15:16.139Z,14.18
2022-09-02T01:18:30.524Z,15.77
2022-09-02T01:20:12.134Z,14.40
2022-09-02T01:21:52.188Z,19.13
2022-09-02T01:23:24.252Z,14.57
2022-09-02T01:25:02.027Z,17.17
2022-09-02T01:26:34.032Z,14.85
2022-09-02T01:28:08.875Z,13.85
2022-09-02T01:29:40.928Z,13.77
2022-09-02T01:31:13.327Z,13.73
2022-09-02T01:32:45.834Z,13.63
2022-09-02T01:34:18.552Z,14.68
2022-09-02T01:35:51.306Z,13.85
2022-09-02T01:37:23.652Z,13.52
2022-09-02T01:38:55.723Z,17.30
2022-09-02T01:40:29.359Z,14.02
2022-09-02T01:42:01.543Z,14.73
2022-09-02T01:43:33.607Z,17.30
2022-09-02T01:45:06.646Z,20.55
2022-09-02T02:41:47.915Z,15.10
2022-09-02T02:43:21.204Z,13.57
2022-09-02T02:46:25.625Z,15.10
2022-09-02T02:47:59.323Z,19.40
2022-09-02T02:49:31.301Z,14.65
2022-09-02T02:51:04.232Z,15.63
2022-09-02T02:52:36.334Z,16.13
2022-09-02T02:54:08.587Z,14.68
2022-09-02T02:55:41.098Z,15.35
2022-09-02T02:57:13.129Z,17.42
2022-09-02T02:58:45.213Z,12.30
2022-09-02T03:00:24.295Z,12.45
2022-09-02T03:01:56.591Z,12.70
2022-09-02T03:03:29.326Z,14.10
2022-09-02T03:05:01.946Z,14.73
2022-09-02T03:06:34.147Z,15.73
2022-09-02T03:08:07.514Z,15.02
2022-09-02T03:09:39.537Z,12.82
2022-09-02T03:11:11.926Z,14.77
2022-09-02T03:12:47.238Z,15.23
2022-09-02T03:14:19.524Z,13.82
2022-09-02T03:15:52.670Z,13.80
2022-09-02T03:17:24.811Z,15.60
2022-09-02T03:18:56.958Z,15.20
2022-09-02T03:20:29.136Z,14.45
2022-09-02T03:22:01.207Z,13.45
2022-09-02T03:23:33.281Z,13.57
2022-09-02T03:25:07.215Z,12.95
2022-09-02T03:26:41.497Z,14.98
2022-09-02T03:28:13.952Z,14.88
2022-09-02T03:29:46.027Z,19.38
2022-09-02T03:31:21.473Z,14.75
2022-09-02T03:32:56.894Z,15.57
2022-09-02T03:34:32.475Z,14.13
2022-09-02T03:36:04.704Z,16.42
2022-09-02T03:37:37.445Z,14.45
2022-09-02T03:39:10.302Z,12.95
2022-09-02T03:40:42.689Z,13.93
2022-09-02T03:42:19.266Z,15.50
2022-09-02T03:43:52.007Z,18.83
2022-09-02T03:45:24.785Z,15.40
2022-09-02T03:46:56.769Z,19.15
2022-09-02T03:48:30.622Z,15.57
2022-09-02T03:50:03.905Z,13.98
2022-09-02T03:53:08.493Z,18.80
2022-09-02T03:54:40.529Z,15.98
2022-09-02T03:56:15.753Z,16.02
2022-09-02T03:57:48.094Z,14.98
2022-09-02T03:59:20.353Z,19.50
2022-09-02T04:00:55.521Z,15.95
2022-09-02T04:02:27.781Z,18.05
2022-09-02T04:04:02.952Z,15.37
2022-09-02T04:05:35.138Z,15.85
2022-09-02T04:07:07.227Z,20.08
2022-09-02T04:08:40.789Z,13.85
2022-09-02T04:10:12.937Z,16.13
2022-09-02T04:11:45.882Z,13.32
2022-09-02T04:13:18.229Z,14.10
2022-09-02T04:14:50.393Z,15.80
2022-09-02T04:16:29.884Z,15.27
2022-09-02T04:18:02.039Z,15.97
2022-09-02T04:19:34.120Z,14.93
2022-09-02T04:21:06.919Z,15.73
2022-09-02T04:30:04.615Z,15.18
2022-09-02T04:31:37.109Z,16.90
2022-09-02T04:33:09.775Z,18.00
2022-09-02T04:34:41.925Z,13.70
2022-09-02T04:36:16.477Z,13.85
2022-09-02T04:37:49.405Z,16.73
2022-09-02T04:39:21.637Z,15.90
2022-09-02T04:40:53.697Z,14.80
2022-09-02T04:42:26.164Z,15.93
2022-09-02T04:43:59.884Z,14.02
2022-09-02T04:45:32.058Z,16.25
2022-09-02T04:47:04.391Z,17.45
2022-09-02T04:48:37.921Z,18.53
2022-09-02T04:50:10.353Z,15.98
2022-09-02T04:51:42.518Z,15.73
2022-09-02T04:53:14.925Z,14.60
2022-09-02T04:54:47.646Z,15.27
2022-09-02T04:56:22.427Z,14.98
2022-09-02T04:57:54.542Z,15.60
2022-09-02T04:59:27.426Z,15.32
2022-09-02T05:00:59.891Z,15.95
2022-09-02T05:02:32.136Z,13.85
2022-09-02T05:04:10.493Z,15.27
2022-09-02T05:05:42.599Z,16.67
2022-09-02T05:07:14.746Z,14.13
2022-09-02T05:08:48.461Z,15.38
2022-09-02T05:10:20.630Z,17.48
2022-09-02T05:11:52.811Z,15.68
2022-09-02T05:13:26.378Z,16.67
2022-09-02T05:15:01.374Z,16.05
2022-09-02T05:16:37.545Z,16.55
2022-09-02T05:18:10.279Z,15.52
2022-09-02T05:19:42.392Z,16.67
2022-09-02T05:21:14.652Z,19.67
2022-09-02T05:22:46.861Z,19.35
2022-09-02T05:24:22.196Z,22.38
2022-09-02T05:25:58.020Z,23.30
2022-09-02T05:27:30.210Z,22.33
2022-09-02T05:29:07.163Z,23.52
2022-09-02T05:30:41.481Z,25.25
2022-09-02T05:32:13.975Z,23.40
2022-09-02T05:33:46.666Z,18.65
2022-09-02T05:35:18.711Z,20.63
2022-09-02T05:36:50.802Z,17.70
2022-09-02T05:38:22.944Z,19.20
2022-09-02T05:39:55.063Z,20.05
2022-09-02T05:41:27.961Z,16.02
2022-09-02T05:43:00.107Z,22.30
2022-09-02T05:44:32.495Z,19.45
2022-09-02T05:46:09.330Z,17.50
2022-09-02T05:47:41.508Z,16.80
2022-09-02T05:49:18.152Z,19.95
2022-09-02T05:50:50.360Z,15.52
2022-09-02T05:52:31.562Z,17.58
2022-09-02T05:54:03.741Z,19.83
2022-09-02T05:55:36.294Z,19.45
2022-09-02T05:57:14.362Z,17.95
2022-09-02T05:58:50.277Z,21.13
2022-09-02T06:00:25.814Z,19.35
2022-09-02T06:01:59.501Z,19.58
2022-09-02T06:03:31.965Z,20.45
2022-09-02T06:05:04.426Z,17.45
2022-09-02T06:06:38.930Z,18.98
2022-09-02T06:08:11.145Z,19.45
2022-09-02T06:09:45.016Z,17.58
2022-09-02T06:11:18.374Z,18.63
2022-09-02T06:12:50.501Z,18.25
2022-09-02T06:14:25.556Z,18.17
2022-09-02T06:15:58.170Z,17.27
2022-09-02T06:17:30.285Z,18.65
2022-09-02T06:19:07.132Z,18.23
2022-09-02T06:20:43.380Z,17.55
2022-09-02T06:22:15.515Z,18.30
2022-09-02T06:23:48.690Z,17.08
2022-09-02T06:25:21.288Z,17.80
2022-09-02T06:26:55.617Z,17.52
2022-09-02T06:28:27.962Z,16.23
2022-09-02T06:29:59.984Z,16.55
2022-09-02T06:31:34.511Z,16.38
2022-09-02T06:33:07.074Z,17.55
2022-09-02T06:34:39.717Z,17.10
2022-09-02T06:36:15.095Z,17.92
2022-09-02T06:37:47.271Z,17.95
2022-09-02T06:39:21.462Z,16.73
2022-09-02T06:40:55.639Z,20.08
2022-09-02T06:42:27.881Z,19.63
2022-09-02T06:44:02.512Z,19.23
2022-09-02T06:45:40.310Z,18.27
2022-09-02T06:47:13.136Z,20.10
2022-09-02T06:48:45.708Z,21.33
2022-09-02T06:50:17.998Z,18.17
2022-09-02T06:51:52.356Z,16.77
2022-09-02T06:53:24.868Z,18.23
2022-09-02T06:54:57.263Z,17.35
2022-09-02T06:56:29.734Z,18.47
2022-09-02T06:58:01.850Z,17.17
2022-09-02T06:59:34.233Z,17.88
2022-09-02T07:01:07.923Z,21.90
2022-09-02T07:02:43.390Z,17.88
2022-09-02T07:04:35.336Z,16.13
2022-09-02T07:06:11.251Z,18.17
2022-09-02T07:07:46.423Z,17.38
2022-09-02T07:09:24.559Z,17.88
2022-09-02T07:10:56.706Z,16.30
2022-09-02T07:12:29.021Z,18.50
2022-09-02T07:14:02.225Z,20.07
2022-09-02T07:17:07.500Z,18.60
2022-09-02T07:18:40.154Z,17.67
2022-09-02T07:20:12.927Z,16.70
2022-09-02T07:21:47.070Z,17.98
2022-09-02T07:23:19.448Z,17.23
2022-09-02T07:24:51.970Z,16.53
2022-09-02T07:26:24.442Z,16.55
2022-09-02T07:27:56.775Z,16.70
2022-09-02T07:29:29.147Z,19.77
2022-09-02T07:31:01.290Z,17.87
2022-09-02T07:32:34.779Z,18.05
2022-09-02T07:34:07.800Z,18.42
2022-09-02T07:35:41.801Z,18.90
2022-09-02T07:37:14.292Z,18.45
2022-09-02T07:38:46.722Z,19.13
2022-09-02T07:40:19.153Z,17.73
2022-09-02T07:41:52.766Z,17.13
2022-09-02T07:44:57.702Z,17.05
2022-09-02T07:46:32.065Z,17.00
2022-09-02T07:48:08.232Z,17.88
2022-09-02T07:51:33.799Z,20.00
2022-09-02T07:53:06.984Z,15.85
2022-09-02T07:54:39.321Z,16.83
2022-09-02T07:56:14.256Z,17.05
2022-09-02T08:18:46.773Z,14.98
2022-09-02T08:20:19.327Z,17.25
2022-09-02T08:21:52.316Z,15.55
2022-09-02T08:23:40.292Z,14.73
2022-09-02T08:25:12.954Z,16.10
2022-09-02T08:26:46.518Z,15.45
2022-09-02T08:28:19.518Z,15.10
2022-09-02T08:29:51.840Z,15.85
2022-09-02T08:31:24.188Z,15.85
2022-09-02T08:32:57.415Z,17.37
2022-09-02T08:36:09.687Z,14.57
2022-09-02T08:37:42.059Z,14.73
2022-09-02T08:39:14.624Z,14.87
2022-09-02T08:40:47.178Z,15.57
2022-09-02T08:42:25.656Z,15.77
2022-09-02T08:44:00.641Z,15.07
2022-09-02T08:45:37.740Z,14.50
2022-09-02T08:47:14.126Z,13.85
2022-09-02T08:48:53.664Z,13.65
2022-09-02T08:50:25.926Z,14.98
2022-09-02T08:52:00.952Z,16.63
2022-09-02T08:53:33.590Z,14.68
2022-09-02T08:55:08.212Z,14.07
2022-09-02T08:56:42.163Z,15.35
2022-09-02T08:58:18.701Z,14.45
2022-09-02T08:59:53.125Z,14.98
2022-09-02T09:01:54.510Z,17.67
2022-09-02T09:03:37.307Z,14.90
2022-09-02T09:05:31.866Z,14.37
2022-09-02T09:07:29.248Z,14.23
2022-09-02T09:09:12.168Z,16.50
2022-09-02T09:11:16.636Z,15.20
2022-09-02T09:13:08.847Z,14.25
2022-09-02T09:14:46.795Z,14.70
2022-09-02T09:16:41.372Z,15.52
2022-09-02T09:18:17.942Z,15.00
2022-09-02T09:19:50.255Z,14.85
2022-09-02T09:23:34.943Z,15.88
2022-09-02T09:25:11.821Z,13.85
2022-09-02T09:26:45.249Z,16.13
2022-09-02T09:28:17.575Z,14.55
2022-09-02T09:29:51.494Z,14.33
2022-09-02T09:33:15.841Z,14.85
2022-09-02T09:34:53.770Z,13.93
2022-09-02T09:36:41.399Z,14.38
2022-09-02T09:38:16.385Z,16.80
2022-09-02T09:39:48.991Z,15.02
2022-09-02T09:41:24.487Z,17.38
2022-09-02T09:43:16.561Z,16.33
2022-09-02T09:44:49.638Z,17.98
2022-09-02T09:46:32.694Z,15.63
2022-09-02T09:48:20.066Z,12.93
2022-09-02T09:49:55.127Z,16.20
2022-09-02T09:51:27.735Z,13.68
2022-09-02T09:53:15.135Z,13.70
2022-09-02T09:54:47.217Z,14.27
2022-09-02T09:56:27.589Z,15.45
2022-09-02T09:58:08.438Z,14.13
2022-09-02T09:59:47.896Z,13.75
2022-09-02T10:01:29.526Z,14.10
2022-09-02T10:03:05.239Z,15.05
2022-09-02T10:04:43.276Z,14.00
2022-09-02T10:06:22.457Z,14.13
2022-09-02T10:08:00.618Z,15.27
2022-09-02T10:09:35.464Z,14.40
2022-09-02T10:11:21.688Z,11.75
2022-09-02T10:12:57.517Z,12.57
2022-09-02T10:14:39.050Z,13.40
2022-09-02T10:16:30.093Z,11.93
2022-09-02T10:18:14.310Z,12.82
2022-09-02T10:20:12.524Z,12.50
2022-09-02T10:22:06.013Z,12.00
2022-09-02T10:23:59.197Z,11.95
2022-09-02T10:25:34.327Z,11.88
2022-09-02T10:27:11.978Z,12.80
2022-09-02T10:29:04.121Z,12.15
2022-09-02T10:30:56.505Z,12.45
2022-09-02T10:32:44.516Z,12.40
2022-09-02T10:34:19.862Z,13.05
2022-09-02T10:36:02.681Z,13.20
2022-09-02T10:37:58.235Z,12.40
2022-09-02T10:39:40.059Z,14.20
2022-09-02T10:41:24.238Z,12.70
2022-09-02T10:43:03.105Z,11.88
2022-09-02T10:44:50.008Z,14.38
2022-09-02T10:46:25.936Z,14.07
2022-09-02T10:48:04.853Z,13.07
2022-09-02T10:49:46.285Z,12.98
2022-09-02T10:51:25.228Z,12.48
2022-09-02T10:53:18.641Z,12.20
2022-09-02T10:55:01.694Z,12.77
2022-09-02T10:56:39.883Z,14.00
2022-09-02T10:58:38.853Z,12.48
2022-09-02T11:00:11.805Z,12.93
2022-09-02T11:02:01.010Z,13.10
2022-09-02T11:03:41.866Z,12.32
2022-09-02T11:05:36.408Z,13.38
2022-09-02T11:07:11.286Z,12.43
2022-09-02T11:09:20.706Z,12.07
2022-09-02T11:11:16.582Z,12.90
2022-09-02T11:12:56.293Z,12.82
2022-09-02T11:14:35.427Z,13.77
2022-09-02T11:16:19.695Z,14.68
2022-09-02T11:18:04.183Z,14.15
2022-09-02T11:22:06.395Z,15.02
2022-09-02T11:23:51.598Z,13.43
2022-09-02T11:25:33.667Z,13.63
2022-09-02T11:27:32.213Z,13.13
2022-09-02T11:29:15.952Z,13.77
2022-09-02T11:31:09.218Z,12.90
2022-09-02T11:32:47.594Z,12.77
2022-09-02T11:34:42.850Z,11.88
2022-09-02T11:36:15.269Z,12.93
2022-09-02T11:38:03.457Z,11.73
2022-09-02T11:40:30.543Z,14.32
2022-09-02T11:42:15.569Z,12.77
2022-09-02T11:44:15.037Z,13.00
2022-09-02T11:45:59.758Z,12.77
2022-09-02T11:47:56.725Z,14.90
2022-09-02T11:49:49.498Z,12.65
2022-09-02T11:51:49.416Z,13.15
2022-09-02T11:53:28.936Z,13.60
2022-09-02T11:55:09.831Z,11.70
2022-09-02T11:56:44.944Z,12.25
2022-09-02T11:58:39.556Z,10.85
2022-09-02T12:00:34.739Z,11.70
2022-09-02T12:02:07.983Z,9.35
2022-09-02T12:04:12.042Z,10.13
2022-09-02T12:05:38.249Z,12.30
2022-09-02T12:08:46.100Z,11.18
2022-09-02T12:10:48.902Z,11.53
2022-09-02T12:12:39.331Z,10.63
2022-09-02T12:14:26.573Z,9.38
2022-09-02T12:16:16.224Z,10.77
2022-09-02T12:17:48.509Z,9.57
2022-09-02T12:19:28.394Z,11.05
2022-09-02T12:21:00.706Z,9.63
2022-09-02T12:22:40.715Z,10.57
2022-09-02T12:24:20.573Z,10.35
2022-09-02T12:25:58.578Z,9.80
2022-09-02T12:27:39.615Z,11.10
2022-09-02T12:29:20.686Z,12.27
2022-09-02T12:31:15.371Z,10.30
2022-09-02T12:32:49.103Z,10.57
2022-09-02T12:34:21.141Z,10.40
2022-09-02T12:35:54.614Z,10.95
2022-09-02T12:37:51.878Z,10.57
2022-09-02T12:39:27.939Z,13.13
2022-09-02T12:41:07.832Z,10.50
2022-09-02T12:42:41.380Z,10.38
2022-09-02T12:44:27.986Z,10.93
2022-09-02T12:46:25.007Z,10.02
2022-09-02T12:48:18.205Z,10.13
2022-09-02T12:50:08.252Z,10.57
2022-09-02T12:52:05.468Z,10.32
2022-09-02T12:53:41.955Z,9.63
2022-09-02T12:55:19.103Z,9.48
2022-09-02T12:56:52.024Z,10.35
2022-09-02T12:58:25.301Z,10.25
2022-09-02T13:01:43.595Z,10.77
2022-09-02T13:03:38.773Z,10.35
2022-09-02T13:07:11.233Z,9.75
2022-09-02T13:09:10.962Z,11.60
2022-09-02T13:11:11.178Z,11.20
2022-09-02T13:13:21.433Z,10.65
2022-09-02T13:15:13.763Z,10.60
2022-09-02T13:17:25.841Z,10.20
2022-09-02T13:19:17.203Z,10.77
2022-09-02T13:20:55.830Z,10.25
2022-09-02T13:22:37.659Z,11.15
2022-09-02T13:24:32.530Z,10.70
2022-09-02T13:26:49.591Z,10.93
2022-09-02T13:28:46.109Z,11.10
2022-09-02T13:30:23.563Z,10.32
2022-09-02T13:32:18.292Z,10.73
2022-09-02T13:34:05.375Z,10.05
2022-09-02T13:35:41.038Z,10.80
2022-09-02T13:37:43.546Z,8.55
2022-09-02T13:39:20.177Z,9.68
2022-09-02T13:40:52.403Z,8.82
2022-09-02T13:42:33.012Z,9.35
2022-09-02T13:44:07.767Z,10.25
2022-09-02T13:45:40.790Z,9.10
2022-09-02T13:47:22.724Z,10.00
2022-09-02T13:48:55.445Z,9.85
2022-09-02T13:50:30.221Z,10.45
2022-09-02T13:52:03.355Z,9.95
2022-09-02T13:53:53.707Z,10.55
2022-09-02T13:55:33.714Z,9.60
2022-09-02T13:57:09.508Z,11.30
2022-09-02T13:58:51.715Z,10.52
2022-09-02T14:00:39.019Z,10.75
2022-09-02T14:02:25.538Z,10.00
2022-09-02T14:04:00.782Z,10.45
2022-09-02T14:05:36.583Z,10.75
2022-09-02T14:07:09.632Z,11.93
2022-09-02T14:08:42.656Z,10.15
2022-09-02T14:10:20.483Z,10.25
2022-09-02T14:11:54.205Z,10.85
2022-09-02T14:13:27.659Z,12.65
2022-09-02T14:15:00.235Z,12.57
2022-09-02T14:16:35.284Z,12.85
2022-09-02T14:18:09.678Z,14.45
2022-09-02T14:19:42.454Z,11.95
2022-09-02T14:21:20.535Z,13.18
2022-09-02T14:22:57.555Z,11.30
2022-09-02T14:24:37.942Z,11.25
2022-09-02T14:26:10.593Z,14.05
2022-09-02T14:27:50.881Z,13.98
2022-09-02T14:29:23.942Z,12.63
2022-09-02T14:30:59.029Z,11.15
2022-09-02T14:32:31.453Z,13.07
2022-09-02T14:34:05.084Z,10.82
2022-09-02T14:35:37.725Z,14.57
2022-09-02T14:37:19.196Z,12.18
2022-09-02T14:38:55.510Z,13.90
2022-09-02T14:40:37.757Z,10.73
2022-09-02T14:42:10.102Z,11.52
2022-09-02T14:45:26.946Z,10.25
2022-09-02T14:47:01.907Z,11.10
2022-09-02T14:48:39.392Z,10.38
2022-09-02T14:50:17.872Z,10.68
2022-09-02T14:51:55.217Z,9.88
2022-09-02T14:53:27.546Z,9.90
2022-09-02T14:55:00.041Z,9.87
2022-09-02T14:56:53.898Z,10.23
2022-09-02T14:58:28.301Z,10.93
2022-09-02T15:00:19.031Z,12.27
2022-09-02T15:01:52.947Z,11.45
2022-09-02T15:03:25.660Z,12.80
2022-09-02T15:05:00.225Z,11.27
2022-09-02T15:06:32.553Z,13.50
2022-09-02T15:08:04.959Z,11.55
2022-09-02T15:09:37.353Z,12.73
2022-09-02T15:11:09.788Z,11.25
2022-09-02T15:12:50.133Z,17.00
2022-09-02T15:14:22.555Z,13.43
2022-09-02T15:15:55.952Z,13.57
2022-09-02T15:17:30.009Z,13.85
2022-09-02T15:19:02.427Z,13.13
2022-09-02T15:20:38.073Z,12.23
2022-09-02T15:22:10.521Z,14.18
2022-09-02T15:23:47.865Z,14.05
2022-09-02T15:25:23.462Z,13.60
2022-09-02T15:26:56.194Z,17.05
2022-09-02T15:28:30.419Z,14.80
2022-09-02T15:30:02.769Z,14.48
2022-09-02T15:31:38.446Z,14.17
2022-09-02T15:33:16.721Z,13.27
2022-09-02T15:34:50.307Z,13.80
2022-09-02T15:36:24.043Z,12.63
2022-09-02T15:37:56.538Z,17.27
2022-09-02T15:39:29.141Z,14.68
2022-09-02T15:41:19.534Z,12.93
2022-09-02T15:44:27.677Z,12.73
2022-09-02T15:45:59.975Z,13.10
2022-09-02T15:47:35.393Z,12.47
2022-09-02T15:49:10.298Z,12.55
2022-09-02T15:50:43.457Z,14.60
2022-09-02T15:52:18.906Z,13.48
2022-09-02T15:53:58.338Z,15.05
2022-09-02T15:55:34.440Z,15.47
2022-09-02T15:57:07.251Z,13.25
2022-09-02T15:58:40.045Z,12.50
2022-09-02T16:00:13.138Z,13.45
2022-09-02T16:01:50.812Z,12.00
2022-09-02T16:03:23.298Z,18.10
2022-09-02T16:04:56.631Z,12.82
2022-09-02T16:06:30.246Z,13.05
2022-09-02T16:08:02.969Z,12.32
2022-09-02T16:09:35.415Z,14.80
2022-09-02T16:11:09.394Z,13.23
2022-09-02T16:12:42.975Z,12.43
2022-09-02T16:14:20.547Z,14.88
2022-09-02T16:16:01.261Z,12.77
2022-09-02T16:19:07.855Z,15.00
2022-09-02T16:20:40.222Z,13.45
2022-09-02T16:22:12.665Z,12.80
2022-09-02T16:23:45.047Z,12.80
2022-09-02T16:25:17.557Z,13.63
2022-09-02T16:26:51.388Z,11.25
2022-09-02T16:28:23.760Z,13.27
2022-09-02T16:29:59.380Z,13.53
2022-09-02T16:31:33.581Z,12.55
2022-09-02T16:33:06.297Z,15.88
2022-09-02T16:34:38.872Z,14.45
2022-09-02T16:36:11.836Z,14.05
2022-09-02T16:37:44.232Z,13.02
2022-09-02T16:39:17.243Z,15.98
2022-09-02T16:40:57.676Z,13.52
2022-09-02T16:42:32.075Z,14.93
2022-09-02T16:44:09.737Z,11.93
2022-09-02T16:45:42.160Z,12.02
2022-09-02T16:47:14.691Z,14.55
2022-09-02T16:48:47.509Z,13.30
2022-09-02T16:50:20.559Z,12.75
2022-09-02T16:51:58.382Z,12.55
2022-09-02T16:53:31.947Z,12.68
2022-09-02T16:55:04.508Z,15.85
2022-09-02T16:56:38.246Z,13.93
2022-09-02T16:58:11.748Z,14.20
2022-09-02T16:59:46.082Z,13.98
2022-09-02T17:01:19.345Z,14.55
2022-09-02T17:02:52.218Z,13.73
2022-09-02T17:04:24.890Z,13.50
2022-09-02T17:05:57.472Z,13.60
2022-09-02T17:07:29.952Z,17.17
2022-09-02T17:09:02.161Z,13.60
2022-09-02T17:10:35.357Z,12.40
2022-09-02T17:13:40.968Z,14.50
2022-09-02T17:15:13.335Z,13.80
2022-09-02T17:16:47.901Z,13.20
2022-09-02T17:18:20.494Z,13.05
2022-09-02T17:19:52.991Z,15.02
2022-09-02T17:21:36.526Z,14.65
2022-09-02T17:23:09.182Z,13.70
2022-09-02T17:24:42.486Z,12.23
2022-09-02T17:27:47.893Z,14.15
2022-09-02T17:29:47.552Z,16.60
2022-09-02T17:31:19.538Z,13.45
2022-09-02T17:32:56.186Z,12.98
2022-09-02T17:34:29.107Z,19.67
2022-09-02T17:36:02.034Z,13.02
2022-09-02T17:37:37.959Z,13.57
2022-09-02T17:39:15.635Z,15.52
2022-09-02T17:41:06.523Z,14.07
2022-09-02T17:42:38.686Z,17.02
2022-09-02T17:44:11.997Z,12.90
2022-09-02T17:45:44.078Z,13.02
2022-09-02T17:47:21.945Z,14.25
2022-09-02T17:49:15.782Z,16.08
2022-09-02T17:50:46.718Z,11.82
2022-09-02T17:52:22.036Z,13.18
2022-09-02T17:53:54.425Z,11.82
2022-09-02T17:55:26.877Z,13.75
2022-09-02T17:57:17.975Z,14.68
2022-09-02T17:59:09.019Z,12.98
2022-09-02T18:00:41.703Z,14.15
2022-09-02T18:02:38.095Z,12.45
2022-09-02T18:04:47.492Z,13.55
2022-09-02T18:06:23.011Z,13.02
2022-09-02T18:08:09.765Z,14.45
2022-09-02T18:09:42.086Z,11.70
2022-09-02T18:11:14.648Z,13.77
2022-09-02T18:12:47.009Z,12.30
2022-09-02T18:14:43.811Z,13.15
2022-09-02T18:16:29.316Z,14.05
2022-09-02T18:18:04.051Z,11.80
2022-09-02T18:19:44.331Z,13.20
2022-09-02T18:21:32.908Z,13.25
2022-09-02T18:23:33.186Z,13.23
2022-09-02T18:25:44.707Z,13.35
2022-09-02T18:27:39.099Z,18.90
2022-09-02T18:31:06.292Z,11.60
2022-09-02T18:32:47.330Z,14.15
2022-09-02T18:34:30.557Z,13.95
2022-09-02T18:36:10.852Z,15.80
2022-09-02T18:37:50.653Z,14.35
2022-09-02T18:39:28.524Z,16.38
2022-09-02T18:41:13.946Z,13.75
2022-09-02T18:43:05.684Z,13.30
2022-09-02T18:44:40.977Z,13.20
2022-09-02T18:46:15.489Z,12.25
2022-09-02T18:47:57.436Z,14.52
2022-09-02T18:49:33.491Z,13.27
2022-09-02T18:51:11.504Z,7.90
2022-09-02T18:52:45.867Z,6.82
2022-09-02T18:54:31.433Z,6.18
2022-09-02T18:56:08.026Z,5.25
2022-09-02T18:57:59.739Z,5.80
2022-09-02T18:59:35.878Z,4.13
2022-09-02T19:01:27.424Z,5.40
2022-09-02T19:03:06.178Z,3.90
2022-09-02T19:04:38.690Z,3.38
2022-09-02T19:06:18.472Z,3.45
2022-09-02T19:08:19.271Z,4.00
2022-09-02T19:09:51.869Z,4.88
2022-09-02T19:11:26.303Z,3.45
2022-09-02T19:13:01.773Z,4.22
2022-09-02T19:14:34.305Z,3.35
2022-09-02T19:16:06.928Z,2.53
2022-09-02T19:17:40.173Z,5.90
2022-09-02T19:19:14.315Z,3.97
2022-09-02T19:20:46.658Z,2.88
2022-09-02T19:22:22.146Z,2.97
2022-09-02T19:23:54.633Z,2.28
2022-09-02T19:25:29.418Z,3.83
2022-09-02T19:27:10.387Z,3.40
2022-09-02T19:28:43.022Z,2.88
2022-09-02T19:30:20.748Z,2.28
2022-09-02T19:31:54.879Z,4.07
2022-09-02T19:33:31.796Z,1.73
2022-09-02T19:35:16.820Z,2.75
2022-09-02T19:36:50.377Z,3.65
2022-09-02T19:38:22.574Z,3.05
2022-09-02T19:39:54.920Z,2.47
2022-09-02T19:41:28.533Z,1.52
2022-09-02T19:43:05.267Z,1.83
2022-09-02T19:44:39.412Z,2.08
2022-09-02T19:46:27.695Z,6.38
2022-09-02T19:48:07.577Z,0.75
2022-09-02T19:49:41.266Z,1.10
2022-09-02T19:51:15.064Z,2.72
2022-09-02T19:52:49.708Z,0.47
2022-09-02T19:54:22.098Z,1.30
2022-09-02T19:55:54.245Z,1.87
2022-09-02T19:57:26.745Z,3.63
2022-09-02T19:58:59.074Z,1.55
2022-09-02T20:00:33.869Z,1.33
2022-09-02T20:02:06.761Z,1.08
2022-09-02T20:03:38.949Z,3.00
2022-09-02T20:05:12.824Z,4.10
2022-09-02T20:06:44.950Z,0.98
2022-09-02T20:08:18.033Z,4.07
2022-09-02T20:09:50.269Z,1.55
2022-09-02T20:11:22.829Z,3.22
2022-09-02T20:12:55.217Z,2.85
2022-09-02T20:14:27.649Z,2.10
2022-09-02T20:16:00.671Z,2.67
2022-09-02T20:17:32.914Z,4.03
2022-09-02T20:19:08.751Z,2.72
2022-09-02T20:20:45.690Z,2.28
2022-09-02T20:22:21.820Z,4.70
2022-09-02T20:23:55.391Z,2.90
2022-09-02T20:25:53.241Z,3.05
2022-09-02T20:27:59.135Z,3.15
2022-09-02T20:29:55.150Z,5.57
2022-09-02T20:31:37.004Z,5.20
2022-09-02T20:33:17.832Z,5.63
2022-09-02T20:35:03.433Z,2.22
2022-09-02T20:37:12.718Z,3.35
2022-09-02T20:38:59.196Z,2.80
2022-09-02T20:40:46.669Z,4.18
2022-09-02T20:42:49.891Z,7.63
2022-09-02T20:45:05.987Z,4.32
2022-09-02T20:46:38.222Z,3.47
2022-09-02T20:48:32.745Z,3.38
2022-09-02T20:50:22.353Z,4.25
2022-09-02T20:51:56.988Z,4.35
2022-09-02T20:55:26.770Z,1.98
2022-09-02T20:57:04.501Z,3.83
2022-09-02T20:59:10.905Z,3.13
2022-09-02T21:01:04.836Z,3.80
2022-09-02T21:02:49.209Z,5.32
2022-09-02T21:04:45.052Z,4.00
2022-09-02T21:06:17.529Z,3.88
2022-09-02T21:07:56.327Z,2.85
2022-09-02T21:09:36.902Z,4.25
2022-09-02T21:11:14.834Z,3.33
2022-09-02T21:13:09.736Z,2.85
2022-09-02T21:14:51.712Z,4.00
2022-09-02T21:16:39.893Z,3.42
2022-09-02T21:18:24.324Z,4.03
2022-09-02T21:20:14.574Z,3.97
2022-09-02T21:21:54.329Z,4.38
2022-09-02T21:25:26.038Z,3.08
2022-09-02T21:27:04.278Z,4.72
2022-09-02T21:28:40.521Z,2.92
2022-09-02T21:30:26.384Z,6.47
2022-09-02T21:32:22.653Z,5.35
2022-09-02T21:33:55.370Z,5.35
2022-09-02T21:35:32.295Z,5.32
2022-09-02T21:37:04.493Z,7.15
2022-09-02T21:38:45.225Z,6.03
2022-09-02T21:40:19.170Z,4.55
2022-09-02T21:42:06.042Z,8.13
2022-09-02T21:43:38.134Z,5.10
2022-09-02T21:45:31.500Z,4.85
2022-09-02T21:47:31.019Z,3.40
2022-09-02T21:49:07.910Z,4.70
2022-09-02T21:50:50.127Z,3.28
2022-09-02T21:52:34.729Z,2.83
2022-09-02T21:54:25.618Z,5.07
2022-09-02T21:55:59.737Z,3.75
2022-09-02T21:57:47.539Z,4.25
2022-09-02T21:59:45.519Z,3.70
2022-09-02T22:01:30.821Z,4.00
2022-09-02T22:03:30.603Z,3.38
2022-09-02T22:05:41.039Z,4.25
2022-09-02T22:07:34.730Z,3.40
2022-09-02T22:09:12.639Z,3.55
2022-09-02T22:11:17.045Z,4.43
2022-09-02T22:12:52.508Z,1.23
2022-09-02T22:14:34.984Z,1.67
2022-09-02T22:16:32.888Z,4.18
2022-09-02T22:18:14.568Z,1.40
2022-09-02T22:19:50.090Z,3.30
2022-09-02T22:21:48.785Z,3.20
2022-09-02T22:23:26.659Z,3.78
2022-09-02T22:24:58.781Z,2.90
2022-09-02T22:26:34.931Z,3.30
2022-09-02T22:28:13.366Z,2.78
2022-09-02T22:30:11.722Z,4.57
2022-09-02T22:31:45.454Z,5.57
2022-09-02T22:33:20.690Z,4.30
2022-09-02T22:35:26.851Z,3.25
2022-09-02T22:37:03.153Z,4.55
2022-09-02T22:38:46.580Z,7.00
2022-09-02T22:40:22.173Z,3.60
2022-09-02T22:42:03.311Z,3.88
2022-09-02T22:43:43.333Z,4.20
2022-09-02T22:45:49.129Z,3.88
2022-09-02T22:47:40.406Z,2.75
2022-09-02T22:49:36.289Z,4.50
2022-09-02T22:51:35.115Z,3.33
2022-09-02T22:53:07.190Z,2.50
2022-09-02T22:54:39.219Z,5.15
2022-09-02T22:56:13.650Z,3.10
2022-09-02T22:58:03.878Z,2.40
2022-09-02T22:59:49.111Z,5.40
2022-09-02T23:01:44.335Z,3.53
2022-09-02T23:04:55.493Z,2.35
2022-09-02T23:06:29.957Z,2.60
2022-09-02T23:08:02.296Z,2.25
2022-09-02T23:09:38.110Z,3.03
2022-09-02T23:11:16.912Z,3.10
2022-09-02T23:13:02.096Z,4.70
2022-09-02T23:14:44.839Z,2.80
2022-09-02T23:16:47.556Z,3.63
2022-09-02T23:18:32.346Z,3.95
2022-09-02T23:20:40.603Z,4.43